sensor_id;sensor_type;location;lat;lon;timestamp;pressure;altitude;pressure_sealevel;temperature;humidity
45255;BME280;30989;52.078;21.014;2022-08-19T00:00:48;169424.69;;;21.52;92.51
45255;BME280;30989;52.078;21.014;2022-08-19T00:03:13;169428.72;;;21.53;92.51
45255;BME280;30989;52.078;21.014;2022-08-19T00:05:39;169428.72;;;21.53;93.09
45255;BME280;30989;52.078;21.014;2022-08-19T00:08:06;169407.16;;;21.45;92.60
45255;BME280;30989;52.078;21.014;2022-08-19T00:10:32;169407.16;;;21.45;92.85
45255;BME280;30989;52.078;21.014;2022-08-19T00:12:59;169411.19;;;21.47;93.02
45255;BME280;30989;52.078;21.014;2022-08-19T00:15:24;169397.72;;;21.42;93.22
45255;BME280;30989;52.078;21.014;2022-08-19T00:17:50;169393.69;;;21.40;93.51
45255;BME280;30989;52.078;21.014;2022-08-19T00:20:18;169391.00;;;21.39;93.57
45255;BME280;30989;52.078;21.014;2022-08-19T00:22:45;169365.38;;;21.30;93.67
45255;BME280;30989;52.078;21.014;2022-08-19T00:25:12;169376.16;;;21.34;93.84
45255;BME280;30989;52.078;21.014;2022-08-19T00:27:39;169369.41;;;21.31;94.14
45255;BME280;30989;52.078;21.014;2022-08-19T00:30:07;169347.88;;;21.23;94.40
45255;BME280;30989;52.078;21.014;2022-08-19T00:32:35;169342.41;;;21.21;94.96
45255;BME280;30989;52.078;21.014;2022-08-19T00:35:01;169320.88;;;21.13;95.40
45255;BME280;30989;52.078;21.014;2022-08-19T00:37:27;169299.31;;;21.05;95.61
45255;BME280;30989;52.078;21.014;2022-08-19T00:39:53;169289.88;;;21.01;96.34
45255;BME280;30989;52.078;21.014;2022-08-19T00:42:21;169277.75;;;20.97;96.37
45255;BME280;30989;52.078;21.014;2022-08-19T00:44:47;169266.97;;;20.92;96.37
45255;BME280;30989;52.078;21.014;2022-08-19T00:47:13;169261.56;;;20.90;96.66
45255;BME280;30989;52.078;21.014;2022-08-19T00:49:50;169256.19;;;20.88;96.92
45255;BME280;30989;52.078;21.014;2022-08-19T00:52:21;169256.19;;;20.88;96.96
45255;BME280;30989;52.078;21.014;2022-08-19T00:54:48;169248.09;;;20.85;97.18
45255;BME280;30989;52.078;21.014;2022-08-19T00:57:17;169252.16;;;20.87;97.69
45255;BME280;30989;52.078;21.014;2022-08-19T00:59:46;169248.09;;;20.85;97.67
45255;BME280;30989;52.078;21.014;2022-08-19T01:02:14;169253.50;;;20.87;97.64
45255;BME280;30989;52.078;21.014;2022-08-19T01:04:40;169240.03;;;20.82;97.45
45255;BME280;30989;52.078;21.014;2022-08-19T01:07:05;169242.72;;;20.83;97.69
45255;BME280;30989;52.078;21.014;2022-08-19T01:09:32;169238.66;;;20.82;97.87
45255;BME280;30989;52.078;21.014;2022-08-19T01:11:57;169192.81;;;20.65;97.79
45255;BME280;30989;52.078;21.014;2022-08-19T01:14:23;169204.94;;;20.69;98.83
45255;BME280;30989;52.078;21.014;2022-08-19T01:16:50;169192.81;;;20.65;98.64
45255;BME280;30989;52.078;21.014;2022-08-19T01:19:29;169175.31;;;20.58;100.00
45255;BME280;30989;52.078;21.014;2022-08-19T01:22:04;169157.78;;;20.51;99.59
45255;BME280;30989;52.078;21.014;2022-08-19T01:24:31;169133.53;;;20.42;100.00
45255;BME280;30989;52.078;21.014;2022-08-19T01:26:57;169133.53;;;20.42;100.00
45255;BME280;30989;52.078;21.014;2022-08-19T01:29:23;169122.72;;;20.38;100.00
45255;BME280;30989;52.078;21.014;2022-08-19T01:31:48;169118.69;;;20.37;100.00
45255;BME280;30989;52.078;21.014;2022-08-19T01:34:19;169109.25;;;20.33;100.00
45255;BME280;30989;52.078;21.014;2022-08-19T01:36:46;169075.56;;;20.20;100.00
45255;BME280;30989;52.078;21.014;2022-08-19T01:39:20;169089.03;;;20.25;100.00
45255;BME280;30989;52.078;21.014;2022-08-19T01:41:47;169094.44;;;20.27;100.00
45255;BME280;30989;52.078;21.014;2022-08-19T01:44:14;169086.34;;;20.24;100.00
45255;BME280;30989;52.078;21.014;2022-08-19T01:46:42;169072.88;;;20.19;100.00
45255;BME280;30989;52.078;21.014;2022-08-19T01:49:08;169067.50;;;20.17;100.00
45255;BME280;30989;52.078;21.014;2022-08-19T01:51:33;169075.56;;;20.20;100.00
45255;BME280;30989;52.078;21.014;2022-08-19T01:53:59;169062.09;;;20.15;100.00
45255;BME280;30989;52.078;21.014;2022-08-19T01:56:26;169062.09;;;20.15;100.00
45255;BME280;30989;52.078;21.014;2022-08-19T01:59:02;169062.09;;;20.15;100.00
45255;BME280;30989;52.078;21.014;2022-08-19T02:01:28;169071.53;;;20.19;100.00
45255;BME280;30989;52.078;21.014;2022-08-19T02:04:00;169066.16;;;20.17;100.00
45255;BME280;30989;52.078;21.014;2022-08-19T02:06:26;169068.84;;;20.18;100.00
45255;BME280;30989;52.078;21.014;2022-08-19T02:08:52;169064.78;;;20.16;100.00
45255;BME280;30989;52.078;21.014;2022-08-19T02:11:24;169058.06;;;20.14;100.00
45255;BME280;30989;52.078;21.014;2022-08-19T02:13:52;169059.41;;;20.14;100.00
45255;BME280;30989;52.078;21.014;2022-08-19T02:16:19;169051.31;;;20.11;100.00
45255;BME280;30989;52.078;21.014;2022-08-19T02:18:46;169045.94;;;20.09;100.00
45255;BME280;30989;52.078;21.014;2022-08-19T02:21:15;168993.41;;;19.89;100.00
45255;BME280;30989;52.078;21.014;2022-08-19T02:23:41;169040.56;;;20.07;100.00
45255;BME280;30989;52.078;21.014;2022-08-19T02:26:07;169045.94;;;20.09;100.00
45255;BME280;30989;52.078;21.014;2022-08-19T02:28:33;169035.16;;;20.05;100.00
45255;BME280;30989;52.078;21.014;2022-08-19T02:30:59;169047.28;;;20.10;100.00
45255;BME280;30989;52.078;21.014;2022-08-19T02:33:26;169047.28;;;20.10;100.00
45255;BME280;30989;52.078;21.014;2022-08-19T02:35:51;169037.84;;;20.06;100.00
45255;BME280;30989;52.078;21.014;2022-08-19T02:38:17;169045.94;;;20.09;100.00
45255;BME280;30989;52.078;21.014;2022-08-19T02:40:58;169036.50;;;20.06;100.00
45255;BME280;30989;52.078;21.014;2022-08-19T02:43:24;169031.13;;;20.04;100.00
45255;BME280;30989;52.078;21.014;2022-08-19T02:45:51;169004.19;;;19.93;100.00
45255;BME280;30989;52.078;21.014;2022-08-19T02:48:18;169024.41;;;20.01;100.00
45255;BME280;30989;52.078;21.014;2022-08-19T02:50:45;169013.63;;;19.97;100.00
45255;BME280;30989;52.078;21.014;2022-08-19T02:53:11;168986.69;;;19.87;100.00
45255;BME280;30989;52.078;21.014;2022-08-19T02:55:43;168986.69;;;19.87;100.00
45255;BME280;30989;52.078;21.014;2022-08-19T02:58:10;168975.91;;;19.83;100.00
45255;BME280;30989;52.078;21.014;2022-08-19T03:00:35;168951.69;;;19.74;100.00
45255;BME280;30989;52.078;21.014;2022-08-19T03:03:01;168942.25;;;19.70;100.00
45255;BME280;30989;52.078;21.014;2022-08-19T03:05:26;168943.59;;;19.71;100.00
45255;BME280;30989;52.078;21.014;2022-08-19T03:07:52;168940.91;;;19.70;100.00
45255;BME280;30989;52.078;21.014;2022-08-19T03:10:18;168943.59;;;19.71;100.00
45255;BME280;30989;52.078;21.014;2022-08-19T03:12:44;168939.56;;;19.69;100.00
45255;BME280;30989;52.078;21.014;2022-08-19T03:15:11;168931.47;;;19.66;100.00
45255;BME280;30989;52.078;21.014;2022-08-19T03:17:37;168930.13;;;19.66;100.00
45255;BME280;30989;52.078;21.014;2022-08-19T03:20:03;168924.75;;;19.63;100.00
45255;BME280;30989;52.078;21.014;2022-08-19T03:22:29;168907.25;;;19.57;100.00
45255;BME280;30989;52.078;21.014;2022-08-19T03:24:55;168899.16;;;19.54;100.00
45255;BME280;30989;52.078;21.014;2022-08-19T03:27:21;168905.91;;;19.56;100.00
45255;BME280;30989;52.078;21.014;2022-08-19T03:29:46;168904.56;;;19.56;100.00
45255;BME280;30989;52.078;21.014;2022-08-19T03:32:12;168904.56;;;19.56;100.00
45255;BME280;30989;52.078;21.014;2022-08-19T03:34:38;168887.00;;;19.49;100.00
45255;BME280;30989;52.078;21.014;2022-08-19T03:37:08;168905.91;;;19.56;100.00
45255;BME280;30989;52.078;21.014;2022-08-19T03:39:36;168903.22;;;19.55;100.00
45255;BME280;30989;52.078;21.014;2022-08-19T03:42:02;168889.69;;;19.50;100.00
45255;BME280;30989;52.078;21.014;2022-08-19T03:44:29;168900.50;;;19.54;100.00
45255;BME280;30989;52.078;21.014;2022-08-19T03:46:57;168897.81;;;19.53;100.00
45255;BME280;30989;52.078;21.014;2022-08-19T03:49:25;168908.59;;;19.57;100.00
45255;BME280;30989;52.078;21.014;2022-08-19T03:51:52;168920.72;;;19.62;100.00
45255;BME280;30989;52.078;21.014;2022-08-19T03:54:21;168927.44;;;19.64;100.00
45255;BME280;30989;52.078;21.014;2022-08-19T03:56:50;168926.09;;;19.64;100.00
45255;BME280;30989;52.078;21.014;2022-08-19T03:59:22;168939.56;;;19.69;100.00
45255;BME280;30989;52.078;21.014;2022-08-19T04:01:52;168943.59;;;19.71;100.00
45255;BME280;30989;52.078;21.014;2022-08-19T04:04:18;168943.59;;;19.71;100.00
45255;BME280;30989;52.078;21.014;2022-08-19T04:06:44;168942.25;;;19.70;100.00
45255;BME280;30989;52.078;21.014;2022-08-19T04:09:11;168942.25;;;19.70;100.00
45255;BME280;30989;52.078;21.014;2022-08-19T04:11:40;168936.88;;;19.68;100.00
45255;BME280;30989;52.078;21.014;2022-08-19T04:14:08;168951.69;;;19.74;100.00
45255;BME280;30989;52.078;21.014;2022-08-19T04:16:34;168961.09;;;19.77;100.00
45255;BME280;30989;52.078;21.014;2022-08-19T04:19:02;168967.84;;;19.80;100.00
45255;BME280;30989;52.078;21.014;2022-08-19T04:21:28;168978.59;;;19.84;100.00
45255;BME280;30989;52.078;21.014;2022-08-19T04:23:55;168989.38;;;19.88;100.00
45255;BME280;30989;52.078;21.014;2022-08-19T04:26:24;169010.94;;;19.96;100.00
45255;BME280;30989;52.078;21.014;2022-08-19T04:28:50;169032.47;;;20.04;100.00
45255;BME280;30989;52.078;21.014;2022-08-19T04:31:22;169059.41;;;20.14;100.00
45255;BME280;30989;52.078;21.014;2022-08-19T04:33:52;169085.00;;;20.24;100.00
45255;BME280;30989;52.078;21.014;2022-08-19T04:36:21;169113.28;;;20.35;100.00
45255;BME280;30989;52.078;21.014;2022-08-19T04:38:47;169129.50;;;20.41;100.00
45255;BME280;30989;52.078;21.014;2022-08-19T04:41:13;169164.53;;;20.54;100.00
45255;BME280;30989;52.078;21.014;2022-08-19T04:43:58;169188.78;;;20.63;100.00
45255;BME280;30989;52.078;21.014;2022-08-19T04:46:24;169204.94;;;20.69;100.00
45255;BME280;30989;52.078;21.014;2022-08-19T04:48:50;169231.88;;;20.79;100.00
45255;BME280;30989;52.078;21.014;2022-08-19T04:51:15;169250.78;;;20.86;100.00
45255;BME280;30989;52.078;21.014;2022-08-19T04:53:42;169258.88;;;20.89;100.00
45255;BME280;30989;52.078;21.014;2022-08-19T04:56:13;169268.31;;;20.93;100.00
45255;BME280;30989;52.078;21.014;2022-08-19T04:58:43;169273.69;;;20.95;100.00
45255;BME280;30989;52.078;21.014;2022-08-19T05:01:17;169240.03;;;20.82;100.00
45255;BME280;30989;52.078;21.014;2022-08-19T05:03:43;169281.78;;;20.98;100.00
45255;BME280;30989;52.078;21.014;2022-08-19T05:06:11;169295.25;;;21.03;100.00
45255;BME280;30989;52.078;21.014;2022-08-19T05:08:38;169316.81;;;21.11;100.00
45255;BME280;30989;52.078;21.014;2022-08-19T05:11:17;169328.94;;;21.16;100.00
45255;BME280;30989;52.078;21.014;2022-08-19T05:13:44;169337.03;;;21.19;100.00
45255;BME280;30989;52.078;21.014;2022-08-19T05:16:12;169366.72;;;21.30;100.00
45255;BME280;30989;52.078;21.014;2022-08-19T05:18:39;169380.22;;;21.35;100.00
45255;BME280;30989;52.078;21.014;2022-08-19T05:21:24;169385.59;;;21.37;100.00
45255;BME280;30989;52.078;21.014;2022-08-19T05:24:08;169405.81;;;21.45;100.00
45255;BME280;30989;52.078;21.014;2022-08-19T05:26:39;169415.25;;;21.48;100.00
45255;BME280;30989;52.078;21.014;2022-08-19T05:29:06;169417.94;;;21.49;100.00
45255;BME280;30989;52.078;21.014;2022-08-19T05:31:33;169426.03;;;21.52;100.00
45255;BME280;30989;52.078;21.014;2022-08-19T05:33:59;169427.38;;;21.53;100.00
45255;BME280;30989;52.078;21.014;2022-08-19T05:36:26;169422.00;;;21.51;100.00
45255;BME280;30989;52.078;21.014;2022-08-19T05:38:53;169424.69;;;21.52;100.00
45255;BME280;30989;52.078;21.014;2022-08-19T05:41:19;169440.84;;;21.58;100.00
45255;BME280;30989;52.078;21.014;2022-08-19T05:43:45;169451.63;;;21.62;100.00
45255;BME280;30989;52.078;21.014;2022-08-19T05:46:18;169450.28;;;21.62;100.00
45255;BME280;30989;52.078;21.014;2022-08-19T05:48:43;169450.28;;;21.62;100.00
45255;BME280;30989;52.078;21.014;2022-08-19T05:51:09;169462.41;;;21.66;100.00
45255;BME280;30989;52.078;21.014;2022-08-19T05:53:36;169461.06;;;21.66;100.00
45255;BME280;30989;52.078;21.014;2022-08-19T05:56:11;169452.97;;;21.63;100.00
45255;BME280;30989;52.078;21.014;2022-08-19T05:58:37;169469.16;;;21.69;100.00
45255;BME280;30989;52.078;21.014;2022-08-19T06:01:04;169485.34;;;21.75;100.00
45255;BME280;30989;52.078;21.014;2022-08-19T06:03:35;169509.59;;;21.84;100.00
45255;BME280;30989;52.078;21.014;2022-08-19T06:06:03;169517.69;;;21.87;100.00
45255;BME280;30989;52.078;21.014;2022-08-19T06:08:29;169515.00;;;21.86;100.00
45255;BME280;30989;52.078;21.014;2022-08-19T06:10:55;169510.94;;;21.84;100.00
45255;BME280;30989;52.078;21.014;2022-08-19T06:13:21;169513.66;;;21.85;100.00
45255;BME280;30989;52.078;21.014;2022-08-19T06:15:48;169520.38;;;21.88;100.00
45255;BME280;30989;52.078;21.014;2022-08-19T06:18:14;169531.16;;;21.92;100.00
45255;BME280;30989;52.078;21.014;2022-08-19T06:20:41;169547.34;;;21.98;100.00
45255;BME280;30989;52.078;21.014;2022-08-19T06:23:07;169571.66;;;22.07;100.00
45255;BME280;30989;52.078;21.014;2022-08-19T06:25:33;169589.19;;;22.14;100.00
45255;BME280;30989;52.078;21.014;2022-08-19T06:27:58;169614.81;;;22.24;100.00
45255;BME280;30989;52.078;21.014;2022-08-19T06:30:24;169631.00;;;22.30;100.00
45255;BME280;30989;52.078;21.014;2022-08-19T06:32:50;169621.53;;;22.26;100.00
45255;BME280;30989;52.078;21.014;2022-08-19T06:35:15;169652.56;;;22.38;100.00
45255;BME280;30989;52.078;21.014;2022-08-19T06:37:41;169659.31;;;22.40;100.00
45255;BME280;30989;52.078;21.014;2022-08-19T06:40:08;169690.31;;;22.52;100.00
45255;BME280;30989;52.078;21.014;2022-08-19T06:42:36;169694.38;;;22.54;100.00
45255;BME280;30989;52.078;21.014;2022-08-19T06:45:04;169687.63;;;22.51;99.69
45255;BME280;30989;52.078;21.014;2022-08-19T06:47:30;169682.22;;;22.49;100.00
45255;BME280;30989;52.078;21.014;2022-08-19T06:49:58;169682.22;;;22.49;100.00
45255;BME280;30989;52.078;21.014;2022-08-19T06:52:30;169690.31;;;22.52;100.00
45255;BME280;30989;52.078;21.014;2022-08-19T06:55:02;169703.78;;;22.57;100.00
45255;BME280;30989;52.078;21.014;2022-08-19T06:57:28;169728.06;;;22.66;100.00
45255;BME280;30989;52.078;21.014;2022-08-19T06:59:58;169757.75;;;22.77;100.00
45255;BME280;30989;52.078;21.014;2022-08-19T07:02:25;169782.06;;;22.87;99.76
45255;BME280;30989;52.078;21.014;2022-08-19T07:04:52;169823.88;;;23.02;99.53
45255;BME280;30989;52.078;21.014;2022-08-19T07:07:19;169836.03;;;23.07;99.26
45255;BME280;30989;52.078;21.014;2022-08-19T07:09:46;169881.88;;;23.24;99.50
45255;BME280;30989;52.078;21.014;2022-08-19T07:12:13;169922.34;;;23.39;99.21
45255;BME280;30989;52.078;21.014;2022-08-19T07:14:41;169965.56;;;23.56;98.47
45255;BME280;30989;52.078;21.014;2022-08-19T07:17:10;170000.66;;;23.69;98.28
45255;BME280;30989;52.078;21.014;2022-08-19T07:19:37;170035.75;;;23.82;97.48
45255;BME280;30989;52.078;21.014;2022-08-19T07:22:07;170065.41;;;23.93;97.15
45255;BME280;30989;52.078;21.014;2022-08-19T07:24:33;170097.81;;;24.05;96.96
45255;BME280;30989;52.078;21.014;2022-08-19T07:27:01;170153.19;;;24.26;96.46
45255;BME280;30989;52.078;21.014;2022-08-19T07:29:29;170199.09;;;24.43;95.42
45255;BME280;30989;52.078;21.014;2022-08-19T07:31:56;170227.44;;;24.54;94.83
45255;BME280;30989;52.078;21.014;2022-08-19T07:34:23;170257.13;;;24.65;94.11
45255;BME280;30989;52.078;21.014;2022-08-19T07:36:49;170292.22;;;24.79;94.28
45255;BME280;30989;52.078;21.014;2022-08-19T07:39:30;170319.22;;;24.89;92.89
45255;BME280;30989;52.078;21.014;2022-08-19T07:42:01;170335.41;;;24.95;93.08
45255;BME280;30989;52.078;21.014;2022-08-19T07:44:27;170359.78;;;25.04;92.22
45255;BME280;30989;52.078;21.014;2022-08-19T07:46:55;170389.47;;;25.15;92.25
45255;BME280;30989;52.078;21.014;2022-08-19T07:49:22;170411.09;;;25.23;92.59
45255;BME280;30989;52.078;21.014;2022-08-19T07:51:51;170420.53;;;25.27;92.02
45255;BME280;30989;52.078;21.014;2022-08-19T07:54:19;170470.50;;;25.46;91.84
45255;BME280;30989;52.078;21.014;2022-08-19T07:56:45;170486.72;;;25.52;91.29
45255;BME280;30989;52.078;21.014;2022-08-19T07:59:11;170506.97;;;25.59;91.14
45255;BME280;30989;52.078;21.014;2022-08-19T08:01:37;170538.06;;;25.71;90.71
45255;BME280;30989;52.078;21.014;2022-08-19T08:04:05;170547.53;;;25.75;89.39
45255;BME280;30989;52.078;21.014;2022-08-19T08:06:50;170575.88;;;25.85;89.24
45255;BME280;30989;52.078;21.014;2022-08-19T08:09:38;170577.25;;;25.86;89.57
45255;BME280;30989;52.078;21.014;2022-08-19T08:12:32;170597.50;;;25.93;88.80
45255;BME280;30989;52.078;21.014;2022-08-19T08:15:01;170612.38;;;25.99;87.16
45255;BME280;30989;52.078;21.014;2022-08-19T08:17:28;170639.44;;;26.09;88.42
45255;BME280;30989;52.078;21.014;2022-08-19T08:19:57;170659.69;;;26.17;88.17
45255;BME280;30989;52.078;21.014;2022-08-19T08:22:23;170686.72;;;26.27;87.68
45255;BME280;30989;52.078;21.014;2022-08-19T08:25:16;170727.28;;;26.42;87.76
45255;BME280;30989;52.078;21.014;2022-08-19T08:27:44;170752.97;;;26.52;86.69
45255;BME280;30989;52.078;21.014;2022-08-19T08:30:15;170779.97;;;26.62;85.95
45255;BME280;30989;52.078;21.014;2022-08-19T08:32:41;170811.06;;;26.74;86.07
45255;BME280;30989;52.078;21.014;2022-08-19T08:35:10;170834.03;;;26.82;84.19
45255;BME280;30989;52.078;21.014;2022-08-19T08:37:36;170857.00;;;26.91;84.79
45255;BME280;30989;52.078;21.014;2022-08-19T08:45:53;170955.72;;;27.28;79.98
45255;BME280;30989;52.078;21.014;2022-08-19T08:48:30;170982.72;;;27.38;79.43
45255;BME280;30989;52.078;21.014;2022-08-19T08:51:02;171000.31;;;27.45;79.36
45255;BME280;30989;52.078;21.014;2022-08-19T08:53:28;171013.81;;;27.50;76.52
45255;BME280;30989;52.078;21.014;2022-08-19T08:55:56;171027.34;;;27.55;76.71
45255;BME280;30989;52.078;21.014;2022-08-19T08:58:41;171047.66;;;27.63;75.39
45255;BME280;30989;52.078;21.014;2022-08-19T09:01:11;171073.34;;;27.72;77.17
45255;BME280;30989;52.078;21.014;2022-08-19T09:03:38;171103.09;;;27.83;76.94
45255;BME280;30989;52.078;21.014;2022-08-19T09:08:57;171122.03;;;27.90;75.68
45255;BME280;30989;52.078;21.014;2022-08-19T09:12:06;171119.31;;;27.89;75.86
45255;BME280;30989;52.078;21.014;2022-08-19T09:14:52;171136.88;;;27.96;72.63
45255;BME280;30989;52.078;21.014;2022-08-19T09:17:24;171157.16;;;28.04;72.83
45255;BME280;30989;52.078;21.014;2022-08-19T09:19:58;171182.84;;;28.13;74.50
45255;BME280;30989;52.078;21.014;2022-08-19T09:22:27;171208.59;;;28.23;73.98
45255;BME280;30989;52.078;21.014;2022-08-19T09:24:54;171227.53;;;28.30;73.50
45255;BME280;30989;52.078;21.014;2022-08-19T09:27:20;171262.69;;;28.43;72.55
45255;BME280;30989;52.078;21.014;2022-08-19T09:29:49;171322.19;;;28.66;71.27
45255;BME280;30989;52.078;21.014;2022-08-19T09:32:15;171345.19;;;28.74;71.39
45255;BME280;30989;52.078;21.014;2022-08-19T09:34:42;171366.81;;;28.82;70.46
45255;BME280;30989;52.078;21.014;2022-08-19T09:37:08;171389.84;;;28.91;69.70
45255;BME280;30989;52.078;21.014;2022-08-19T09:39:34;171435.84;;;29.08;69.89
45255;BME280;30989;52.078;21.014;2022-08-19T09:41:59;171473.72;;;29.23;70.54
45255;BME280;30989;52.078;21.014;2022-08-19T09:44:25;171502.13;;;29.33;69.47
45255;BME280;30989;52.078;21.014;2022-08-19T09:46:51;171492.66;;;29.30;66.74
45255;BME280;30989;52.078;21.014;2022-08-19T09:49:20;171502.13;;;29.33;68.96
45255;BME280;30989;52.078;21.014;2022-08-19T09:51:51;171506.19;;;29.35;67.71
45255;BME280;30989;52.078;21.014;2022-08-19T09:54:17;171540.06;;;29.47;67.42
45255;BME280;30989;52.078;21.014;2022-08-19T09:56:43;171569.81;;;29.59;66.17
45255;BME280;30989;52.078;21.014;2022-08-19T09:59:10;171592.81;;;29.67;66.04
45255;BME280;30989;52.078;21.014;2022-08-19T10:01:37;171588.75;;;29.66;66.03
45255;BME280;30989;52.078;21.014;2022-08-19T10:04:03;171613.13;;;29.75;64.33
45255;BME280;30989;52.078;21.014;2022-08-19T10:06:36;171638.81;;;29.84;64.94
45255;BME280;30989;52.078;21.014;2022-08-19T10:09:03;171672.66;;;29.97;65.85
45255;BME280;30989;52.078;21.014;2022-08-19T10:11:33;171691.66;;;30.04;64.74
45255;BME280;30989;52.078;21.014;2022-08-19T10:14:00;171699.75;;;30.07;64.15
45255;BME280;30989;52.078;21.014;2022-08-19T10:16:26;171728.19;;;30.18;63.20
45255;BME280;30989;52.078;21.014;2022-08-19T10:18:52;171744.41;;;30.24;62.85
45255;BME280;30989;52.078;21.014;2022-08-19T10:21:22;171736.28;;;30.21;62.76
45255;BME280;30989;52.078;21.014;2022-08-19T10:23:49;171725.47;;;30.17;62.75
45255;BME280;30989;52.078;21.014;2022-08-19T10:26:19;171751.19;;;30.27;63.20
45255;BME280;30989;52.078;21.014;2022-08-19T10:28:45;171756.59;;;30.29;62.26
45255;BME280;30989;52.078;21.014;2022-08-19T10:31:17;171803.97;;;30.46;61.77
45255;BME280;30989;52.078;21.014;2022-08-19T10:33:45;171843.28;;;30.61;60.79
45255;BME280;30989;52.078;21.014;2022-08-19T10:36:20;171845.97;;;30.62;59.74
45255;BME280;30989;52.078;21.014;2022-08-19T10:38:50;171868.97;;;30.71;58.92
45255;BME280;30989;52.078;21.014;2022-08-19T10:41:20;171890.63;;;30.79;59.49
45255;BME280;30989;52.078;21.014;2022-08-19T10:43:50;171898.75;;;30.82;59.45
45255;BME280;30989;52.078;21.014;2022-08-19T10:46:17;171913.66;;;30.88;59.88
45255;BME280;30989;52.078;21.014;2022-08-19T10:48:44;171948.84;;;31.01;58.79
45255;BME280;30989;52.078;21.014;2022-08-19T10:51:10;171970.50;;;31.09;58.00
45255;BME280;30989;52.078;21.014;2022-08-19T10:53:55;172034.25;;;31.33;57.53
45255;BME280;30989;52.078;21.014;2022-08-19T10:56:22;172104.63;;;31.59;56.59
45255;BME280;30989;52.078;21.014;2022-08-19T10:59:06;172127.66;;;31.68;57.46
45255;BME280;30989;52.078;21.014;2022-08-19T11:01:33;172202.19;;;31.96;56.15
45255;BME280;30989;52.078;21.014;2022-08-19T11:04:02;172278.09;;;32.24;55.36
45255;BME280;30989;52.078;21.014;2022-08-19T11:06:28;172302.47;;;32.33;55.46
45255;BME280;30989;52.078;21.014;2022-08-19T11:08:55;172340.38;;;32.48;55.54
45255;BME280;30989;52.078;21.014;2022-08-19T11:11:21;172364.75;;;32.57;54.47
45255;BME280;30989;52.078;21.014;2022-08-19T11:13:47;172408.13;;;32.73;54.77
45255;BME280;30989;52.078;21.014;2022-08-19T11:16:22;172517.91;;;33.14;55.38
45255;BME280;30989;52.078;21.014;2022-08-19T11:18:52;172616.84;;;33.51;53.70
45255;BME280;30989;52.078;21.014;2022-08-19T11:21:29;172703.63;;;33.84;52.66
45255;BME280;30989;52.078;21.014;2022-08-19T11:24:03;172763.28;;;34.06;53.55
45255;BME280;30989;52.078;21.014;2022-08-19T11:26:30;172826.97;;;34.30;52.83
45255;BME280;30989;52.078;21.014;2022-08-19T11:28:57;172893.44;;;34.55;52.91
45255;BME280;30989;52.078;21.014;2022-08-19T11:31:25;172924.63;;;34.67;51.97
45255;BME280;30989;52.078;21.014;2022-08-19T11:33:51;172997.88;;;34.94;52.18
45255;BME280;30989;52.078;21.014;2022-08-19T11:36:21;173075.16;;;35.23;50.07
45255;BME280;30989;52.078;21.014;2022-08-19T11:38:47;173117.25;;;35.39;50.33
45255;BME280;30989;52.078;21.014;2022-08-19T11:41:14;173251.53;;;35.89;48.83
45255;BME280;30989;52.078;21.014;2022-08-19T11:43:40;173387.22;;;36.40;47.64
45255;BME280;30989;52.078;21.014;2022-08-19T11:46:10;173490.44;;;36.78;45.71
45255;BME280;30989;52.078;21.014;2022-08-19T11:48:37;173518.91;;;36.89;46.54
45255;BME280;30989;52.078;21.014;2022-08-19T11:51:08;173601.66;;;37.20;46.41
45255;BME280;30989;52.078;21.014;2022-08-19T11:53:35;173751.03;;;37.76;44.67
45255;BME280;30989;52.078;21.014;2022-08-19T11:56:03;173794.47;;;37.92;44.07
45255;BME280;30989;52.078;21.014;2022-08-19T11:58:28;173852.88;;;38.14;44.34
45255;BME280;30989;52.078;21.014;2022-08-19T12:00:57;173928.88;;;38.43;43.24
45255;BME280;30989;52.078;21.014;2022-08-19T12:03:23;173968.25;;;38.57;39.21
45255;BME280;30989;52.078;21.014;2022-08-19T12:05:48;173909.88;;;38.35;40.59
45255;BME280;30989;52.078;21.014;2022-08-19T12:08:15;174019.88;;;38.77;41.60
45255;BME280;30989;52.078;21.014;2022-08-19T12:10:42;174158.41;;;39.28;38.38
45255;BME280;30989;52.078;21.014;2022-08-19T12:13:09;174121.75;;;39.15;38.99
45255;BME280;30989;52.078;21.014;2022-08-19T12:15:39;174114.97;;;39.12;37.86
45255;BME280;30989;52.078;21.014;2022-08-19T12:18:06;174061.97;;;38.92;38.67
45255;BME280;30989;52.078;21.014;2022-08-19T12:20:37;174097.31;;;39.06;38.94
45255;BME280;30989;52.078;21.014;2022-08-19T12:23:04;174161.13;;;39.29;38.75
45255;BME280;30989;52.078;21.014;2022-08-19T12:25:30;174210.06;;;39.48;38.81
45255;BME280;30989;52.078;21.014;2022-08-19T12:27:58;174298.31;;;39.81;37.92
45255;BME280;30989;52.078;21.014;2022-08-19T12:30:23;174378.47;;;40.11;37.98
45255;BME280;30989;52.078;21.014;2022-08-19T12:32:49;174405.63;;;40.21;34.37
45255;BME280;30989;52.078;21.014;2022-08-19T12:35:16;174296.94;;;39.80;33.74
45255;BME280;30989;52.078;21.014;2022-08-19T12:37:42;174125.81;;;39.16;35.41
45255;BME280;30989;52.078;21.014;2022-08-19T12:40:10;174079.59;;;38.99;36.74
45255;BME280;30989;52.078;21.014;2022-08-19T12:42:38;174026.66;;;38.79;37.24
45255;BME280;30989;52.078;21.014;2022-08-19T12:45:07;174006.31;;;38.72;36.58
45255;BME280;30989;52.078;21.014;2022-08-19T12:47:32;173930.22;;;38.43;37.38
45255;BME280;30989;52.078;21.014;2022-08-19T12:49:58;173904.44;;;38.33;37.92